createdAt,value
2022-11-29T00:01:01.752Z,101528.41
2022-11-29T00:03:29.229Z,101533.63
2022-11-29T00:05:55.907Z,101536.25
2022-11-29T00:08:23.795Z,101538.03
2022-11-29T00:10:50.322Z,101536.34
2022-11-29T00:13:17.469Z,101541.56
2022-11-29T00:15:43.907Z,101547.63
2022-11-29T00:18:10.268Z,101543.34
2022-11-29T00:20:38.950Z,101542.50
2022-11-29T00:23:05.365Z,101540.75
2022-11-29T00:25:31.739Z,101536.44
2022-11-29T00:27:58.279Z,101539.88
2022-11-29T00:30:24.736Z,101546.91
2022-11-29T00:32:51.118Z,101543.47
2022-11-29T00:35:17.582Z,101543.47
2022-11-29T00:37:43.879Z,101551.41
2022-11-29T00:40:10.674Z,101547.81
2022-11-29T00:42:36.978Z,101554.84
2022-11-29T00:45:03.578Z,101545.31
2022-11-29T00:47:29.873Z,101554.00
2022-11-29T00:49:56.192Z,101549.81
2022-11-29T00:52:22.495Z,101546.28
2022-11-29T00:54:48.865Z,101546.28
2022-11-29T00:57:15.235Z,101542.91
2022-11-29T00:59:41.539Z,101546.38
2022-11-29T01:02:07.914Z,101545.53
2022-11-29T01:04:34.501Z,101546.47
2022-11-29T01:07:00.928Z,101543.84
2022-11-29T01:09:27.620Z,101550.03
2022-11-29T01:11:53.975Z,101550.03
2022-11-29T01:14:20.325Z,101556.06
2022-11-29T01:16:46.780Z,101555.25
2022-11-29T01:19:13.221Z,101559.63
2022-11-29T01:21:39.664Z,101557.00
2022-11-29T01:24:06.089Z,101557.00
2022-11-29T01:26:32.821Z,101561.41
2022-11-29T01:28:59.263Z,101561.50
2022-11-29T01:31:26.926Z,101571.84
2022-11-29T01:33:54.931Z,101571.03
2022-11-29T01:36:21.599Z,101578.00
2022-11-29T01:38:48.011Z,101577.16
2022-11-29T01:41:18.914Z,101573.72
2022-11-29T01:44:00.304Z,101580.72
2022-11-29T01:46:29.924Z,101582.50
2022-11-29T01:49:01.863Z,101579.88
2022-11-29T01:51:30.634Z,101580.00
2022-11-29T01:53:58.373Z,101586.03
2022-11-29T01:56:25.424Z,101585.22
2022-11-29T01:58:52.002Z,101587.81
2022-11-29T02:01:18.803Z,101586.13
2022-11-29T02:03:45.282Z,101594.81
2022-11-29T02:06:11.799Z,101587.09
2022-11-29T02:08:41.191Z,101592.31
2022-11-29T02:11:38.269Z,101592.31
2022-11-29T02:14:18.776Z,101588.03
2022-11-29T02:16:56.937Z,101587.09
2022-11-29T02:19:29.124Z,101590.63
2022-11-29T02:22:06.895Z,101593.25
2022-11-29T02:25:27.099Z,101588.94
2022-11-29T02:28:40.177Z,101595.97
2022-11-29T02:31:32.496Z,101599.50
2022-11-29T02:34:38.730Z,101596.06
2022-11-29T02:37:38.573Z,101595.22
2022-11-29T02:40:10.790Z,101597.81
2022-11-29T02:43:06.053Z,101602.22
2022-11-29T02:45:44.735Z,101603.13
2022-11-29T02:48:11.083Z,101607.53
2022-11-29T02:50:53.315Z,101610.16
2022-11-29T02:53:30.954Z,101606.81
2022-11-29T02:56:12.055Z,101607.63
2022-11-29T02:58:50.116Z,101612.03
2022-11-29T03:01:25.501Z,101618.19
2022-11-29T03:04:05.011Z,101621.63
2022-11-29T03:06:51.998Z,101624.31
2022-11-29T03:09:36.047Z,101632.16
2022-11-29T03:12:30.435Z,101629.53
2022-11-29T03:15:07.322Z,101634.75
2022-11-29T03:18:06.654Z,101624.44
2022-11-29T03:21:11.473Z,101629.66
2022-11-29T03:23:45.143Z,101635.78
2022-11-29T03:26:24.402Z,101633.19
2022-11-29T03:28:53.494Z,101637.59
2022-11-29T03:31:33.836Z,101642.78
2022-11-29T03:34:13.423Z,101644.59
2022-11-29T03:36:52.907Z,101652.50
2022-11-29T03:39:28.660Z,101646.34
2022-11-29T03:42:06.231Z,101662.00
2022-11-29T03:44:41.374Z,101652.50
2022-11-29T03:47:15.730Z,101657.72
2022-11-29T03:49:53.920Z,101656.06
2022-11-29T03:52:35.590Z,101658.66
2022-11-29T03:55:26.862Z,101669.09
2022-11-29T03:58:02.381Z,101663.06
2022-11-29T04:00:48.207Z,101676.09
2022-11-29T04:03:38.109Z,101670.03
2022-11-29T04:06:43.266Z,101668.34
2022-11-29T04:09:36.298Z,101673.56
2022-11-29T04:12:39.558Z,101687.56
2022-11-29T04:15:17.958Z,101684.09
2022-11-29T04:18:00.595Z,101676.38
2022-11-29T04:20:48.713Z,101675.53
2022-11-29T04:23:25.622Z,101679.94
2022-11-29T04:26:25.351Z,101688.69
2022-11-29T04:29:23.837Z,101683.47
2022-11-29T04:31:59.578Z,101689.63
2022-11-29T04:34:58.850Z,101687.88
2022-11-29T04:38:03.136Z,101690.47
2022-11-29T04:41:01.616Z,101694.00
2022-11-29T04:44:03.286Z,101691.50
2022-11-29T04:46:46.604Z,101698.41
2022-11-29T04:49:36.058Z,101697.53
2022-11-29T04:52:17.542Z,101699.31
2022-11-29T04:55:07.990Z,101700.25
2022-11-29T04:57:42.009Z,101707.16
2022-11-29T05:00:11.914Z,101701.19
2022-11-29T05:02:53.225Z,101713.31
2022-11-29T05:05:32.988Z,101715.19
2022-11-29T05:08:24.173Z,101714.22
2022-11-29T05:11:05.425Z,101723.75
2022-11-29T05:13:40.545Z,101723.94
2022-11-29T05:16:22.788Z,101726.44
2022-11-29T05:19:04.671Z,101735.19
2022-11-29T05:22:00.123Z,101740.50
2022-11-29T05:24:47.950Z,101734.47
2022-11-29T05:27:22.797Z,101743.22
2022-11-29T05:30:02.502Z,101741.47
2022-11-29T05:32:35.418Z,101744.06
2022-11-29T05:35:23.597Z,101741.56
2022-11-29T05:37:57.075Z,101748.53
2022-11-29T05:40:42.497Z,101739.88
2022-11-29T05:43:21.414Z,101746.03
2022-11-29T05:46:02.310Z,101752.06
2022-11-29T05:48:37.373Z,101757.28
2022-11-29T05:51:17.982Z,101758.25
2022-11-29T05:53:47.826Z,101765.97
2022-11-29T05:56:40.955Z,101769.50
2022-11-29T05:59:18.484Z,101777.44
2022-11-29T06:02:01.672Z,101778.34
2022-11-29T06:04:52.798Z,101783.56
2022-11-29T06:07:45.374Z,101790.56
2022-11-29T06:10:13.782Z,101788.88
2022-11-29T06:12:42.558Z,101783.66
2022-11-29T06:15:41.291Z,101781.91
2022-11-29T06:18:32.417Z,101782.94
2022-11-29T06:21:17.459Z,101786.38
2022-11-29T06:23:48.292Z,101788.97
2022-11-29T06:26:36.510Z,101782.94
2022-11-29T06:29:40.494Z,101796.91
2022-11-29T06:32:15.974Z,101796.06
2022-11-29T06:34:53.152Z,101801.28
2022-11-29T06:37:45.083Z,101805.66
2022-11-29T06:40:15.699Z,101818.63
2022-11-29T06:42:42.623Z,101814.25
2022-11-29T06:45:14.297Z,101813.41
2022-11-29T06:47:55.803Z,101815.16
2022-11-29T06:50:42.125Z,101816.94
2022-11-29T06:53:19.314Z,101821.31
2022-11-29T06:56:15.329Z,101830.91
2022-11-29T06:58:56.834Z,101835.28
2022-11-29T07:01:39.750Z,101836.97
2022-11-29T07:04:30.878Z,101838.63
2022-11-29T07:06:57.536Z,101842.94
2022-11-29T07:09:33.310Z,101838.53
2022-11-29T07:11:59.943Z,101851.59
2022-11-29T07:14:26.586Z,101850.75
2022-11-29T07:17:18.479Z,101850.75
2022-11-29T07:20:10.129Z,101855.97
2022-11-29T07:22:54.630Z,101860.38
2022-11-29T07:25:54.117Z,101872.56
2022-11-29T07:29:04.793Z,101874.25
2022-11-29T07:31:47.280Z,101876.03
2022-11-29T07:34:32.129Z,101875.06
2022-11-29T07:37:33.574Z,101889.81
2022-11-29T07:40:13.197Z,101894.09
2022-11-29T07:42:51.699Z,101891.41
2022-11-29T07:45:27.275Z,101903.50
2022-11-29T07:47:53.986Z,101905.19
2022-11-29T07:50:21.258Z,101904.34
2022-11-29T07:52:48.423Z,101910.31
2022-11-29T07:55:19.154Z,101912.91
2022-11-29T07:57:46.379Z,101908.63
2022-11-29T08:00:13.840Z,101914.69
2022-11-29T08:02:41.002Z,101922.44
2022-11-29T08:05:08.566Z,101919.81
2022-11-29T08:07:36.246Z,101922.34
2022-11-29T08:10:03.835Z,101928.38
2022-11-29T08:12:30.185Z,101927.47
2022-11-29T08:14:56.543Z,101921.41
2022-11-29T08:17:22.910Z,101936.97
2022-11-29T08:19:49.219Z,101934.28
2022-11-29T08:22:15.586Z,101929.06
2022-11-29T08:24:42.002Z,101929.97
2022-11-29T08:27:08.302Z,101935.09
2022-11-29T08:29:34.681Z,101937.63
2022-11-29T08:32:01.276Z,101939.41
2022-11-29T08:34:28.014Z,101936.69
2022-11-29T08:36:56.492Z,101939.22
2022-11-29T08:39:23.345Z,101936.59
2022-11-29T08:41:50.034Z,101942.66
2022-11-29T08:44:16.487Z,101940.13
2022-11-29T08:47:01.217Z,101932.31
2022-11-29T08:49:27.566Z,101937.44
2022-11-29T08:52:17.094Z,101946.13
2022-11-29T08:54:43.897Z,101946.13
2022-11-29T08:57:38.708Z,101948.66
2022-11-29T08:59:57.015Z,101955.53
2022-11-29T09:02:23.337Z,101963.34
2022-11-29T09:04:49.712Z,101960.66
2022-11-29T09:07:16.537Z,101953.59
2022-11-29T09:09:42.930Z,101959.72
2022-11-29T09:12:09.285Z,101960.66
2022-11-29T09:14:35.606Z,101954.78
2022-11-29T09:17:01.986Z,101961.78
2022-11-29T09:19:28.532Z,101963.34
2022-11-29T09:21:55.011Z,101966.81
2022-11-29T09:24:21.432Z,101971.09
2022-11-29T09:26:48.415Z,101969.34
2022-11-29T09:29:17.363Z,101975.47
2022-11-29T09:31:46.790Z,101970.16
2022-11-29T09:34:18.525Z,101979.78
2022-11-29T09:36:45.118Z,101977.16
2022-11-29T09:39:14.386Z,101988.34
2022-11-29T09:41:59.371Z,101994.44
2022-11-29T09:44:59.979Z,101996.09
2022-11-29T09:48:02.226Z,101997.78
2022-11-29T09:50:28.934Z,101998.78
2022-11-29T09:53:18.939Z,102011.00
2022-11-29T09:56:12.317Z,102014.44
2022-11-29T09:58:49.273Z,102017.91
2022-11-29T10:01:28.348Z,101997.13
2022-11-29T10:03:59.736Z,102011.09
2022-11-29T10:06:57.051Z,102013.72
2022-11-29T10:09:47.843Z,102025.84
2022-11-29T10:12:20.329Z,102019.66
2022-11-29T10:15:25.726Z,102027.50
2022-11-29T10:17:58.938Z,102028.34
2022-11-29T10:20:40.458Z,102027.41
2022-11-29T10:23:23.586Z,102017.91
2022-11-29T10:25:53.191Z,102015.31
2022-11-29T10:28:26.566Z,102020.53
2022-11-29T10:30:55.278Z,102010.09
2022-11-29T10:33:37.029Z,102014.44
2022-11-29T10:36:07.728Z,102020.53
2022-11-29T10:38:34.077Z,102027.41
2022-11-29T10:41:15.802Z,102028.34
2022-11-29T10:43:43.103Z,102024.78
2022-11-29T10:46:29.776Z,102023.88
2022-11-29T10:48:59.338Z,102029.00
2022-11-29T10:51:25.829Z,102017.72
2022-11-29T10:53:54.635Z,102021.16
2022-11-29T10:56:34.512Z,102024.59
2022-11-29T10:59:05.266Z,102016.78
2022-11-29T11:01:35.903Z,102021.06
2022-11-29T11:04:04.234Z,102025.38
2022-11-29T11:06:49.710Z,102020.16
2022-11-29T11:09:29.219Z,102022.75
2022-11-29T11:11:58.747Z,102010.53
2022-11-29T11:14:34.444Z,102014.00
2022-11-29T11:17:20.731Z,102020.06
2022-11-29T11:20:27.750Z,102012.22
2022-11-29T11:23:03.528Z,102018.28
2022-11-29T11:25:37.074Z,102014.75
2022-11-29T11:28:24.081Z,102020.81
2022-11-29T11:31:00.271Z,102024.28
2022-11-29T11:33:34.816Z,102026.78
2022-11-29T11:36:04.146Z,102023.31
2022-11-29T11:38:30.875Z,102021.56
2022-11-29T11:41:20.860Z,102018.97
2022-11-29T11:43:59.227Z,102025.09
2022-11-29T11:46:47.325Z,102032.00
2022-11-29T11:49:24.533Z,102023.22
2022-11-29T11:51:50.915Z,102024.91
2022-11-29T11:54:17.478Z,102030.03
2022-11-29T11:56:43.990Z,102028.28
2022-11-29T11:59:20.197Z,102031.16
2022-11-29T12:01:46.734Z,102034.63
2022-11-29T12:04:19.063Z,102039.75
2022-11-29T12:07:05.638Z,102038.75
2022-11-29T12:09:52.708Z,102045.63
2022-11-29T12:12:32.895Z,102049.81
2022-11-29T12:15:08.440Z,102045.44
2022-11-29T12:17:57.441Z,102041.06
2022-11-29T12:20:26.031Z,102047.03
2022-11-29T12:23:11.188Z,102050.47
2022-11-29T12:26:34.462Z,102061.69
2022-11-29T12:29:01.084Z,102064.28
2022-11-29T12:31:39.569Z,102060.75
2022-11-29T12:34:22.573Z,102062.41
2022-11-29T12:36:58.202Z,102068.50
2022-11-29T12:39:42.331Z,102064.94
2022-11-29T12:42:45.666Z,102065.81
2022-11-29T12:45:27.521Z,102076.34
2022-11-29T12:48:10.103Z,102072.03
2022-11-29T12:50:48.915Z,102082.47
2022-11-29T12:53:27.661Z,102081.72
2022-11-29T12:56:06.447Z,102083.50
2022-11-29T12:58:32.706Z,102093.03
2022-11-29T13:01:12.484Z,102087.78
2022-11-29T13:03:51.114Z,102088.72
2022-11-29T13:06:48.019Z,102087.78
2022-11-29T13:09:29.420Z,102087.78
2022-11-29T13:12:02.214Z,102086.94
2022-11-29T13:14:43.710Z,102083.41
2022-11-29T13:17:51.527Z,102094.78
2022-11-29T13:20:23.055Z,102088.63
2022-11-29T13:23:20.811Z,102099.06
2022-11-29T13:25:51.158Z,102098.97
2022-11-29T13:28:30.247Z,102091.91
2022-11-29T13:31:02.448Z,102090.13
2022-11-29T13:33:51.021Z,102084.19
2022-11-29T13:36:47.026Z,102100.56
2022-11-29T13:39:19.386Z,102104.88
2022-11-29T13:42:04.583Z,102105.81
2022-11-29T13:44:40.407Z,102104.97
2022-11-29T13:47:11.061Z,102108.41
2022-11-29T13:49:58.009Z,102108.41
2022-11-29T13:52:37.466Z,102105.81
2022-11-29T13:55:11.669Z,102119.78
2022-11-29T13:58:15.397Z,102105.81
2022-11-29T14:00:42.222Z,102113.63
2022-11-29T14:03:23.894Z,102109.34
2022-11-29T14:05:52.041Z,102113.63
2022-11-29T14:09:18.482Z,102105.72
2022-11-29T14:11:50.734Z,102105.72
2022-11-29T14:14:26.150Z,102104.03
2022-11-29T14:17:17.003Z,102110.09
2022-11-29T14:19:43.422Z,102103.94
2022-11-29T14:22:17.643Z,102096.09
2022-11-29T14:24:56.347Z,102097.03
2022-11-29T14:27:22.600Z,102105.63
2022-11-29T14:29:55.014Z,102111.66
2022-11-29T14:32:45.938Z,102106.38
2022-11-29T14:35:12.639Z,102104.69
2022-11-29T14:37:57.686Z,102107.13
2022-11-29T14:40:45.429Z,102109.66
2022-11-29T14:43:30.819Z,102114.13
2022-11-29T14:46:20.323Z,102118.50
2022-11-29T14:48:54.612Z,102127.19
2022-11-29T14:51:22.672Z,102120.28
2022-11-29T14:54:03.651Z,102118.59
2022-11-29T14:56:34.649Z,102122.69
2022-11-29T14:59:38.481Z,102110.47
2022-11-29T15:02:14.814Z,102122.59
2022-11-29T15:04:41.638Z,102115.59
2022-11-29T15:07:16.970Z,102124.31
2022-11-29T15:09:46.387Z,102122.59
2022-11-29T15:12:18.921Z,102122.53
2022-11-29T15:15:20.888Z,102112.06
2022-11-29T15:18:06.927Z,102125.13
2022-11-29T15:20:54.792Z,102121.69
2022-11-29T15:23:21.276Z,102125.97
2022-11-29T15:25:52.508Z,102121.69
2022-11-29T15:28:24.548Z,102132.97
2022-11-29T15:31:10.716Z,102125.22
2022-11-29T15:33:40.627Z,102130.44
2022-11-29T15:36:10.725Z,102132.22
2022-11-29T15:38:48.954Z,102132.13
2022-11-29T15:41:29.950Z,102139.97
2022-11-29T15:44:05.562Z,102134.75
2022-11-29T15:46:34.084Z,102137.38
2022-11-29T15:49:22.865Z,102146.13
2022-11-29T15:51:55.021Z,102150.41
2022-11-29T15:54:53.491Z,102152.16
2022-11-29T15:57:29.806Z,102157.31
2022-11-29T16:00:01.018Z,102153.03
2022-11-29T16:02:33.377Z,102149.66
2022-11-29T16:05:22.634Z,102160.09
2022-11-29T16:07:53.183Z,102160.19
2022-11-29T16:10:21.646Z,102154.97
2022-11-29T16:12:56.326Z,102154.03
2022-11-29T16:15:34.595Z,102159.28
2022-11-29T16:18:23.422Z,102160.00
2022-11-29T16:21:00.076Z,102162.63
2022-11-29T16:23:42.139Z,102161.78
2022-11-29T16:26:18.894Z,102166.28
2022-11-29T16:28:47.559Z,102168.88
2022-11-29T16:31:23.520Z,102165.59
2022-11-29T16:33:52.415Z,102165.13
2022-11-29T16:36:25.139Z,102164.44
2022-11-29T16:38:56.033Z,102168.16
2022-11-29T16:41:37.001Z,102170.84
2022-11-29T16:44:05.431Z,102172.53
2022-11-29T16:46:39.445Z,102164.44
2022-11-29T16:49:33.461Z,102162.50
2022-11-29T16:52:00.145Z,102163.44
2022-11-29T16:54:33.815Z,102163.44
2022-11-29T16:57:05.096Z,102172.19
2022-11-29T16:59:32.370Z,102167.88
2022-11-29T17:01:59.028Z,102168.84
2022-11-29T17:04:26.107Z,102168.94
2022-11-29T17:06:56.292Z,102170.66
2022-11-29T17:09:28.361Z,102167.31
2022-11-29T17:11:56.005Z,102169.00
2022-11-29T17:14:23.059Z,102174.41
2022-11-29T17:16:49.692Z,102179.63
2022-11-29T17:19:16.748Z,102184.84
2022-11-29T17:21:43.204Z,102187.63
2022-11-29T17:24:12.899Z,102188.56
2022-11-29T17:26:40.767Z,102189.47
2022-11-29T17:29:07.582Z,102192.91
2022-11-29T17:31:34.056Z,102187.78
2022-11-29T17:34:00.757Z,102187.88
2022-11-29T17:36:27.604Z,102194.13
2022-11-29T17:38:54.310Z,102194.19
2022-11-29T17:41:23.756Z,102202.13
2022-11-29T17:43:51.645Z,102196.97
2022-11-29T17:46:23.600Z,102192.78
2022-11-29T17:48:52.155Z,102206.69
2022-11-29T17:51:49.949Z,102201.53
2022-11-29T17:54:08.311Z,102201.47
2022-11-29T17:56:34.810Z,102196.16
2022-11-29T17:59:02.770Z,102206.59
2022-11-29T18:01:31.753Z,102201.38
2022-11-29T18:04:00.566Z,102203.06
2022-11-29T18:06:35.942Z,102198.59
2022-11-29T18:09:03.763Z,102209.84
2022-11-29T18:11:43.001Z,102221.16
2022-11-29T18:14:15.373Z,102218.19
2022-11-29T18:16:42.026Z,102220.53
2022-11-29T18:19:12.587Z,102217.75
2022-11-29T18:21:39.654Z,102217.59
2022-11-29T18:24:06.993Z,102229.63
2022-11-29T18:26:34.906Z,102228.72
2022-11-29T18:29:01.582Z,102228.63
2022-11-29T18:31:33.286Z,102238.06
2022-11-29T18:34:01.865Z,102235.38
2022-11-29T18:36:31.097Z,102234.50
2022-11-29T18:39:00.450Z,102237.81
2022-11-29T18:41:31.030Z,102236.03
2022-11-29T18:44:06.303Z,102230.78
2022-11-29T18:46:33.360Z,102241.25
2022-11-29T18:49:00.897Z,102238.63
2022-11-29T18:51:29.319Z,102242.09
2022-11-29T18:53:56.562Z,102242.94
2022-11-29T18:56:24.834Z,102241.06
2022-11-29T18:58:59.995Z,102242.75
2022-11-29T19:01:28.790Z,102248.81
2022-11-29T19:03:57.925Z,102249.69
2022-11-29T19:06:32.955Z,102255.56
2022-11-29T19:09:07.140Z,102243.44
2022-11-29T19:11:34.254Z,102253.81
2022-11-29T19:14:03.854Z,102258.16
2022-11-29T19:16:33.214Z,102251.94
2022-11-29T19:19:00.902Z,102249.31
2022-11-29T19:21:29.318Z,102254.47
2022-11-29T19:24:00.936Z,102255.28
2022-11-29T19:26:28.894Z,102248.41
2022-11-29T19:28:55.346Z,102257.06
2022-11-29T19:31:26.955Z,102260.41
2022-11-29T19:33:55.006Z,102254.28
2022-11-29T19:36:24.505Z,102255.91
2022-11-29T19:38:53.763Z,102254.13
2022-11-29T19:41:26.514Z,102259.25
2022-11-29T19:43:53.282Z,102255.81
2022-11-29T19:46:22.185Z,102260.97
2022-11-29T19:48:49.034Z,102266.19
2022-11-29T19:51:18.839Z,102262.75
2022-11-29T19:53:46.419Z,102264.50
2022-11-29T19:56:16.058Z,102259.25
2022-11-29T19:58:43.398Z,102271.50
2022-11-29T20:01:11.611Z,102267.09
2022-11-29T20:03:38.850Z,102268.88
2022-11-29T20:06:05.668Z,102281.03
2022-11-29T20:08:32.554Z,102277.56
2022-11-29T20:11:06.966Z,102278.41
2022-11-29T20:13:33.440Z,102280.94
2022-11-29T20:16:11.782Z,102280.94
2022-11-29T20:18:45.820Z,102279.16
2022-11-29T20:21:20.401Z,102282.69
2022-11-29T20:23:46.992Z,102284.38
2022-11-29T20:26:16.059Z,102285.31
2022-11-29T20:28:43.386Z,102287.09
2022-11-29T20:31:12.915Z,102284.47
2022-11-29T20:33:41.713Z,102280.06
2022-11-29T20:36:22.839Z,102280.94
2022-11-29T20:39:03.435Z,102290.44
2022-11-29T20:41:48.469Z,102287.78
2022-11-29T20:44:24.145Z,102287.78
2022-11-29T20:46:50.670Z,102290.44
2022-11-29T20:49:18.313Z,102281.84
2022-11-29T20:51:57.745Z,102284.47
2022-11-29T20:54:24.206Z,102288.88
2022-11-29T20:56:50.582Z,102301.94
2022-11-29T20:59:16.952Z,102304.72
2022-11-29T21:01:43.326Z,102306.44
2022-11-29T21:04:09.678Z,102305.69
2022-11-29T21:06:39.466Z,102306.63
2022-11-29T21:09:06.485Z,102298.78
2022-11-29T21:11:33.040Z,102297.94
2022-11-29T21:14:03.735Z,102299.69
2022-11-29T21:16:31.622Z,102308.47
2022-11-29T21:19:00.463Z,102309.31
2022-11-29T21:22:06.017Z,102320.78
2022-11-29T21:24:47.778Z,102310.31
2022-11-29T21:27:19.867Z,102320.69
2022-11-29T21:29:46.568Z,102324.06
2022-11-29T21:32:22.090Z,102316.31
2022-11-29T21:34:48.818Z,102322.47
2022-11-29T21:37:18.488Z,102322.47
2022-11-29T21:39:45.309Z,102332.09
2022-11-29T21:42:11.757Z,102321.63
2022-11-29T21:44:38.356Z,102326.00
2022-11-29T21:47:04.813Z,102323.28
2022-11-29T21:49:31.519Z,102321.72
2022-11-29T21:52:00.921Z,102324.41
2022-11-29T21:54:28.286Z,102326.16
2022-11-29T21:56:55.423Z,102335.78
2022-11-29T21:59:24.491Z,102332.31
2022-11-29T22:01:52.266Z,102334.91
2022-11-29T22:04:18.660Z,102335.00
2022-11-29T22:06:45.009Z,102339.41
2022-11-29T22:09:11.408Z,102335.88
2022-11-29T22:11:37.902Z,102337.63
2022-11-29T22:14:13.489Z,102339.41
2022-11-29T22:16:50.067Z,102342.84
2022-11-29T22:19:20.118Z,102335.97
2022-11-29T22:21:52.198Z,102340.31
2022-11-29T22:24:21.070Z,102342.94
2022-11-29T22:26:48.437Z,102344.72
2022-11-29T22:29:15.246Z,102343.88
2022-11-29T22:31:43.908Z,102337.78
2022-11-29T22:34:11.112Z,102350.84
2022-11-29T22:36:38.492Z,102346.50
2022-11-29T22:39:06.496Z,102357.84
2022-11-29T22:41:34.444Z,102352.63
2022-11-29T22:44:00.807Z,102346.56
2022-11-29T22:46:28.449Z,102351.81
2022-11-29T22:48:56.506Z,102348.31
2022-11-29T22:51:26.150Z,102353.56
2022-11-29T22:53:59.974Z,102353.56
2022-11-29T22:56:29.607Z,102356.16
2022-11-29T22:58:56.175Z,102357.94
2022-11-29T23:01:25.529Z,102356.25
2022-11-29T23:03:54.191Z,102358.03
2022-11-29T23:06:21.611Z,102358.03
2022-11-29T23:08:49.042Z,102366.69
2022-11-29T23:11:19.746Z,102366.69
2022-11-29T23:13:46.148Z,102378.00
2022-11-29T23:16:18.835Z,102376.31
2022-11-29T23:18:46.346Z,102373.69
2022-11-29T23:21:22.031Z,102371.09
2022-11-29T23:23:53.043Z,102371.16
2022-11-29T23:26:31.478Z,102373.69
2022-11-29T23:28:58.294Z,102372.00
2022-11-29T23:31:25.167Z,102370.31
2022-11-29T23:33:51.703Z,102377.31
2022-11-29T23:36:18.803Z,102369.47
2022-11-29T23:38:45.557Z,102373.88
2022-11-29T23:41:12.298Z,102366.94
2022-11-29T23:43:40.624Z,102366.13
2022-11-29T23:46:08.656Z,102373.09
2022-11-29T23:48:35.079Z,102379.19
2022-11-29T23:51:01.658Z,102374.78
2022-11-29T23:53:28.050Z,102373.94
2022-11-29T23:55:59.453Z,102376.66
2022-11-29T23:58:26.258Z,102380.00
